Time;durP1;ratioP1;P1;durP2;ratioP2;P2;SDS_P1;SDS_P2;PMS_P1;PMS_P2;Temp;Humidity;BMP_temperature;BMP_pressure;BME280_temperature;BME280_humidity;BME280_pressure;Samples;Min_cycle;Max_cycle;Signal;HPM_P1;HPM_P2
2021/05/21 00:01:44;;;;;;;1.75;1.45;;;;;;;14.94;68.89;99920.24;1841824;77;22135;-54
2021/05/21 00:04:17;;;;;;;2.47;1.95;;;;;;;14.98;68.77;99920.09;1821197;77;22751;-54
2021/05/21 00:06:50;;;;;;;2.45;1.60;;;;;;;14.96;68.76;99929.88;1838280;77;22130;-54
2021/05/21 00:09:23;;;;;;;2.75;1.77;;;;;;;14.93;68.79;99926.46;1818598;77;22201;-53
2021/05/21 00:12:09;;;;;;;2.62;1.57;;;;;;;14.90;68.82;99943.35;1778578;80;21124;-54
2021/05/21 00:14:42;;;;;;;2.33;1.70;;;;;;;14.91;68.84;99941.11;1822531;77;22146;-53
2021/05/21 00:17:15;;;;;;;2.17;1.50;;;;;;;14.92;68.86;99938.86;1831284;77;22159;-54
2021/05/21 00:20:04;;;;;;;2.37;1.62;;;;;;;14.83;68.97;99950.64;1757008;81;21159;-54
2021/05/21 00:22:37;;;;;;;1.92;1.70;;;;;;;14.91;68.78;99949.05;1826269;77;22174;-54
2021/05/21 00:25:12;;;;;;;2.58;1.85;;;;;;;14.91;68.68;99953.03;1815168;77;22143;-54
2021/05/21 00:27:45;;;;;;;1.82;1.50;;;;;;;14.90;68.62;99951.75;1824518;77;22162;-54
2021/05/21 00:30:30;;;;;;;1.37;1.27;;;;;;;14.85;68.66;99958.08;1757274;81;21119;-55
2021/05/21 00:33:04;;;;;;;2.52;1.30;;;;;;;14.89;68.63;99954.87;1812583;77;22179;-54
2021/05/21 00:35:37;;;;;;;2.90;1.65;;;;;;;14.86;68.62;99961.13;1853101;77;22155;-54
2021/05/21 00:38:10;;;;;;;1.85;1.40;;;;;;;14.85;68.62;99963.85;1805747;77;22164;-54
2021/05/21 00:40:55;;;;;;;2.67;1.65;;;;;;;14.81;68.67;99968.86;1762724;81;21105;-56
2021/05/21 00:43:29;;;;;;;2.05;1.62;;;;;;;14.84;68.70;99969.59;1797757;77;22474;-54
2021/05/21 00:46:03;;;;;;;2.00;1.80;;;;;;;14.86;68.72;99966.91;1821268;77;22185;-54
2021/05/21 00:48:50;;;;;;;3.15;1.52;;;;;;;14.80;68.77;99968.45;1771950;78;21611;-55
2021/05/21 00:51:23;;;;;;;2.37;1.65;;;;;;;14.83;68.91;99966.55;1853130;77;22570;-54
2021/05/21 00:53:56;;;;;;;3.02;1.90;;;;;;;14.83;69.00;99969.66;1807504;77;22602;-54
2021/05/21 00:56:31;;;;;;;2.50;1.70;;;;;;;14.81;69.07;99964.88;1808146;77;22606;-54
2021/05/21 00:59:17;;;;;;;4.45;1.87;;;;;;;14.90;68.89;99970.30;1761965;81;21585;-56
2021/05/21 01:01:51;;;;;;;2.60;1.95;;;;;;;14.83;69.15;99959.92;1828938;77;22169;-54
2021/05/21 01:04:24;;;;;;;4.15;2.10;;;;;;;14.85;69.20;99959.88;1814103;77;22187;-54
2021/05/21 01:07:11;;;;;;;2.15;1.77;;;;;;;14.83;69.15;99961.23;1780316;80;21616;-54
2021/05/21 01:09:44;;;;;;;3.20;2.17;;;;;;;14.97;68.83;99959.44;1852976;77;22562;-54
2021/05/21 01:12:17;;;;;;;3.47;2.40;;;;;;;14.97;68.70;99960.76;1830365;77;22148;-54
2021/05/21 01:14:55;;;;;;;2.40;2.02;;;;;;;14.96;68.72;99958.15;1833092;77;22128;-54
2021/05/21 01:17:29;;;;;;;3.08;2.30;;;;;;;14.24;70.85;99963.73;1806158;77;22179;-54
2021/05/21 01:20:03;;;;;;;2.87;2.20;;;;;;;14.13;71.26;99962.79;1853077;77;22594;-54
2021/05/21 01:22:36;;;;;;;3.12;2.50;;;;;;;14.07;71.58;99951.08;1806265;77;22199;-54
2021/05/21 01:25:22;;;;;;;3.50;2.30;;;;;;;13.98;71.79;99961.52;1763467;80;21139;-54
2021/05/21 01:27:55;;;;;;;2.77;2.10;;;;;;;13.97;72.07;99958.00;1822109;77;22155;-54
2021/05/21 01:30:29;;;;;;;2.83;2.05;;;;;;;13.98;72.19;99954.91;1828495;77;22135;-54
2021/05/21 01:33:15;;;;;;;2.83;2.47;;;;;;;13.83;72.73;99960.25;1689897;83;21303;-55
2021/05/21 01:35:50;;;;;;;3.12;2.30;;;;;;;13.86;72.89;99956.63;1853138;77;22175;-54
2021/05/21 01:38:23;;;;;;;2.90;2.50;;;;;;;13.89;72.74;99959.17;1794603;77;22191;-54
2021/05/21 01:40:56;;;;;;;2.95;2.02;;;;;;;13.86;72.97;99959.27;1819229;77;22185;-54
2021/05/21 01:43:30;;;;;;;6.50;2.90;;;;;;;13.86;72.94;99964.56;1832561;77;22189;-54
2021/05/21 01:46:16;;;;;;;2.80;2.25;;;;;;;14.30;71.47;99967.50;1793301;80;21585;-55
2021/05/21 01:48:49;;;;;;;4.92;2.37;;;;;;;13.88;72.80;99974.20;1809476;77;22614;-54
2021/05/21 01:51:22;;;;;;;4.30;2.40;;;;;;;13.80;73.13;99968.28;1819608;77;22554;-54
2021/05/21 01:54:14;;;;;;;2.72;1.92;;;;;;;14.46;71.00;99970.48;1808642;77;22187;-54
2021/05/21 01:57:04;;;;;;;2.67;1.77;;;;;;;14.58;70.44;99971.83;1834107;77;22128;-54
2021/05/21 01:59:38;;;;;;;2.62;2.02;;;;;;;14.61;70.35;99969.06;1826958;77;22116;-54
2021/05/21 02:02:11;;;;;;;2.15;1.87;;;;;;;14.64;70.24;99964.98;1831852;77;22180;-54
2021/05/21 02:04:44;;;;;;;3.08;2.00;;;;;;;14.66;70.05;99968.45;1834759;77;22167;-54
2021/05/21 02:07:18;;;;;;;5.00;2.40;;;;;;;14.65;69.95;99969.84;1832354;77;22189;-54
2021/05/21 02:09:58;;;;;;;2.30;1.80;;;;;;;14.01;71.77;99970.69;1826312;77;22115;-54
2021/05/21 02:12:44;;;;;;;3.35;2.20;;;;;;;13.80;72.64;99979.72;1786871;80;21229;-55
2021/05/21 02:15:17;;;;;;;2.90;2.00;;;;;;;14.19;71.62;99973.61;1829737;77;22183;-54
2021/05/21 02:17:51;;;;;;;2.42;2.10;;;;;;;13.88;72.47;99976.84;1817344;77;22193;-54
2021/05/21 02:20:36;;;;;;;3.67;2.20;;;;;;;14.51;70.48;99980.45;1697956;84;21154;-55
2021/05/21 02:23:10;;;;;;;3.62;2.40;;;;;;;14.60;70.17;99973.96;1837110;77;22166;-54
2021/05/21 02:25:43;;;;;;;3.50;2.42;;;;;;;14.60;70.14;99976.61;1806000;77;22179;-54
2021/05/21 02:28:16;;;;;;;3.17;2.30;;;;;;;14.60;70.10;99979.73;1800136;77;22177;-54
2021/05/21 02:30:49;;;;;;;3.12;2.15;;;;;;;14.61;70.11;99983.64;1834092;77;22163;-54
2021/05/21 02:33:22;;;;;;;2.85;2.30;;;;;;;14.61;70.09;99984.95;1813292;77;22590;-54
2021/05/21 02:35:55;;;;;;;3.37;2.30;;;;;;;14.62;70.04;99984.52;1830556;77;22123;-53
2021/05/21 02:38:28;;;;;;;2.80;2.50;;;;;;;14.62;70.08;99984.04;1801393;77;22219;-54
2021/05/21 02:41:01;;;;;;;2.55;1.98;;;;;;;14.64;70.11;99987.50;1821347;77;22167;-54
2021/05/21 02:43:34;;;;;;;3.17;2.40;;;;;;;14.62;70.12;99997.28;1831278;77;22186;-54
2021/05/21 02:46:10;;;;;;;4.67;3.62;;;;;;;14.63;70.10;100002.98;1807936;77;28405;-54
2021/05/21 02:48:43;;;;;;;3.67;2.50;;;;;;;14.65;70.15;100003.80;1810831;77;22605;-54
2021/05/21 02:51:16;;;;;;;3.80;2.45;;;;;;;14.72;70.06;100010.64;1834887;77;22152;-54
2021/05/21 02:54:02;;;;;;;2.58;2.17;;;;;;;14.73;70.05;100015.50;1764759;80;21171;-54
2021/05/21 02:56:35;;;;;;;3.02;2.60;;;;;;;14.79;70.06;100015.25;1827492;77;22159;-53
2021/05/21 02:59:09;;;;;;;3.70;2.58;;;;;;;14.80;70.06;100018.31;1805002;77;22570;-54
2021/05/21 03:01:42;;;;;;;3.80;2.30;;;;;;;14.84;70.09;100025.70;1853024;77;22669;-54
2021/05/21 03:04:15;;;;;;;2.98;2.50;;;;;;;14.87;70.09;100027.78;1795945;77;22182;-54
2021/05/21 03:06:48;;;;;;;3.50;2.40;;;;;;;14.92;70.05;100031.60;1853152;77;22574;-54
2021/05/21 03:09:21;;;;;;;4.53;2.83;;;;;;;14.94;70.08;100034.19;1799444;77;22602;-54
2021/05/21 03:11:54;;;;;;;3.87;2.83;;;;;;;14.97;70.07;100032.31;1834781;77;22175;-54
2021/05/21 03:14:42;;;;;;;4.25;2.77;;;;;;;14.97;70.07;100034.95;1696817;84;21291;-54
2021/05/21 03:17:15;;;;;;;3.52;2.42;;;;;;;15.02;70.05;100031.66;1849347;77;22639;-53
2021/05/21 03:19:49;;;;;;;3.85;2.70;;;;;;;15.03;70.13;100033.86;1832463;77;22585;-53
2021/05/21 03:22:22;;;;;;;5.00;2.80;;;;;;;15.07;70.25;100033.27;1821083;77;22656;-53
2021/05/21 03:24:56;;;;;;;3.80;2.83;;;;;;;15.12;70.15;100032.20;1834744;77;22181;-53
2021/05/21 03:27:43;;;;;;;4.40;3.00;;;;;;;15.15;69.98;100032.09;1728257;81;21308;-54
2021/05/21 03:30:17;;;;;;;5.05;2.92;;;;;;;15.23;70.04;100030.47;1829882;77;22112;-53
2021/05/21 03:32:50;;;;;;;4.50;3.42;;;;;;;15.30;70.03;100033.75;1820365;77;22182;-53
2021/05/21 03:35:24;;;;;;;3.25;2.85;;;;;;;15.38;69.93;100028.17;1834774;77;22622;-54
2021/05/21 03:37:57;;;;;;;4.40;3.20;;;;;;;15.49;69.79;100031.73;1821370;77;22171;-54
2021/05/21 03:40:32;;;;;;;6.17;3.15;;;;;;;15.59;69.54;100034.45;1826193;77;22147;-53
2021/05/21 03:43:18;;;;;;;5.10;3.22;;;;;;;15.59;69.54;100033.97;1720292;83;21750;-54
2021/05/21 03:45:51;;;;;;;5.05;3.50;;;;;;;15.64;69.72;100039.56;1819833;77;22171;-53
2021/05/21 03:48:26;;;;;;;3.77;2.98;;;;;;;15.63;69.96;100045.34;1802306;77;22200;-53
2021/05/21 03:51:00;;;;;;;3.35;2.83;;;;;;;15.69;69.86;100041.09;1797704;77;22267;-53
2021/05/21 03:53:45;;;;;;;6.22;3.40;;;;;;;15.74;69.77;100047.57;1787045;80;21580;-54
2021/05/21 03:56:18;;;;;;;4.12;3.27;;;;;;;15.85;69.77;100055.98;1818321;77;22563;-53
2021/05/21 03:58:51;;;;;;;6.28;2.98;;;;;;;15.85;69.95;100055.98;1791751;77;22203;-53
2021/05/21 04:01:38;;;;;;;7.92;3.08;;;;;;;15.93;69.71;100060.13;1744863;81;21550;-55
2021/05/21 04:04:11;;;;;;;3.83;3.02;;;;;;;15.98;69.71;100053.73;1797765;77;22193;-53
2021/05/21 04:06:44;;;;;;;5.08;3.10;;;;;;;16.05;69.60;100064.51;1823290;77;22164;-53
2021/05/21 04:09:17;;;;;;;3.92;3.35;;;;;;;16.11;69.49;100062.53;1788902;77;22200;-53
2021/05/21 04:11:51;;;;;;;5.08;3.20;;;;;;;16.14;69.59;100058.40;1818959;77;22182;-53
2021/05/21 04:14:36;;;;;;;4.35;3.65;;;;;;;16.16;69.54;100067.17;1749318;81;21569;-54
2021/05/21 04:17:09;;;;;;;3.70;3.20;;;;;;;16.24;69.37;100072.19;1821245;77;22512;-53
2021/05/21 04:19:42;;;;;;;4.30;3.37;;;;;;;16.25;69.32;100076.09;1820421;77;22143;-53
2021/05/21 04:22:27;;;;;;;3.90;3.22;;;;;;;16.26;69.20;100084.94;1787872;80;21310;-54
2021/05/21 04:25:00;;;;;;;3.80;3.20;;;;;;;16.31;69.06;100084.30;1831331;77;22712;-53
2021/05/21 04:27:33;;;;;;;4.15;3.15;;;;;;;16.33;68.99;100090.41;1809770;77;22174;-53
2021/05/21 04:30:20;;;;;;;3.80;3.27;;;;;;;16.34;68.77;100088.13;1760109;81;21126;-55
2021/05/21 04:32:53;;;;;;;4.17;3.17;;;;;;;16.41;68.32;100086.10;1805094;77;22174;-53
2021/05/21 04:35:27;;;;;;;4.53;3.60;;;;;;;16.39;68.30;100095.44;1833498;77;22127;-53
2021/05/21 04:38:00;;;;;;;6.17;3.20;;;;;;;16.38;68.23;100101.68;1808177;77;22220;-53
2021/05/21 04:40:52;;;;;;;3.85;2.95;;;;;;;16.28;68.49;100106.51;1817697;77;22643;-55
2021/05/21 04:43:37;;;;;;;4.25;2.85;;;;;;;16.23;68.66;100104.98;1793724;77;22159;-53
2021/05/21 04:46:23;;;;;;;4.60;3.35;;;;;;;16.17;68.66;100116.69;1742557;81;21286;-55
2021/05/21 04:48:56;;;;;;;3.58;2.87;;;;;;;16.16;68.86;100110.98;1794164;77;22182;-54
2021/05/21 04:51:29;;;;;;;3.67;3.02;;;;;;;16.27;68.63;100113.23;1817279;77;22597;-53
2021/05/21 04:54:04;;;;;;;3.67;2.87;;;;;;;16.30;68.52;100119.27;1793435;77;22217;-53
2021/05/21 04:56:37;;;;;;;3.72;2.65;;;;;;;16.31;68.55;100124.98;1818972;77;22167;-53
2021/05/21 04:59:23;;;;;;;4.22;2.95;;;;;;;16.16;69.07;100128.23;1758030;80;21288;-54
2021/05/21 05:01:56;;;;;;;3.70;2.95;;;;;;;16.19;69.12;100123.69;1831921;77;22182;-54
2021/05/21 05:04:29;;;;;;;3.80;2.92;;;;;;;16.28;69.03;100128.23;1825362;77;22602;-54
2021/05/21 05:07:02;;;;;;;3.90;2.77;;;;;;;16.28;69.15;100129.08;1852493;77;22174;-54
2021/05/21 05:09:35;;;;;;;3.75;2.75;;;;;;;16.39;68.96;100137.09;1834781;77;22602;-54
2021/05/21 05:12:10;;;;;;;4.08;2.77;;;;;;;16.47;68.86;100134.99;1833421;77;22622;-54
2021/05/21 05:14:43;;;;;;;3.83;2.72;;;;;;;16.50;68.67;100142.84;1820325;77;22147;-54
2021/05/21 05:17:16;;;;;;;3.95;3.25;;;;;;;16.44;68.93;100145.73;1849276;77;22583;-54
2021/05/21 05:19:49;;;;;;;3.40;2.92;;;;;;;16.74;68.48;100153.37;1834765;77;22575;-54
2021/05/21 05:22:23;;;;;;;3.90;2.80;;;;;;;17.44;66.19;100147.28;1821235;77;22189;-54
2021/05/21 05:25:10;;;;;;;4.40;2.58;;;;;;;17.49;65.89;100155.08;1732347;80;21277;-55
2021/05/21 05:27:43;;;;;;;4.40;4.00;;;;;;;17.72;65.36;100154.49;1809335;77;28450;-54
2021/05/21 05:30:19;;;;;;;4.47;2.80;;;;;;;17.79;65.18;100158.16;1837323;77;22136;-54
2021/05/21 05:33:05;;;;;;;3.65;2.60;;;;;;;17.84;64.88;100168.58;1779574;78;21158;-54
2021/05/21 05:35:38;;;;;;;3.40;2.70;;;;;;;17.90;64.67;100167.42;1834795;77;22152;-54
2021/05/21 05:38:11;;;;;;;2.62;2.10;;;;;;;17.92;64.47;100169.09;1818390;77;22170;-54
2021/05/21 05:40:44;;;;;;;3.12;2.30;;;;;;;17.93;64.48;100168.61;1820013;77;22189;-54
2021/05/21 05:43:17;;;;;;;4.85;2.33;;;;;;;17.93;64.51;100172.16;1834226;77;22589;-54
2021/05/21 05:46:04;;;;;;;3.00;2.20;;;;;;;17.87;64.48;100179.09;1793331;80;21128;-55
2021/05/21 05:48:37;;;;;;;3.40;2.52;;;;;;;17.94;64.36;100178.33;1820641;77;22700;-54
2021/05/21 05:51:10;;;;;;;2.40;2.17;;;;;;;17.97;64.39;100177.73;1830151;77;22143;-54
2021/05/21 05:53:43;;;;;;;3.15;2.40;;;;;;;17.96;64.51;100181.33;1811315;77;22170;-54
2021/05/21 05:56:17;;;;;;;3.22;2.35;;;;;;;17.90;64.68;100187.39;1834796;77;22164;-54
2021/05/21 05:59:03;;;;;;;2.55;2.35;;;;;;;17.96;64.37;100186.66;1766439;80;21323;-55
2021/05/21 06:01:36;;;;;;;5.12;2.35;;;;;;;17.97;64.24;100185.72;1834806;77;22152;-55
2021/05/21 06:04:09;;;;;;;2.75;2.30;;;;;;;18.00;64.24;100189.21;1805570;77;22194;-54
2021/05/21 06:06:42;;;;;;;4.03;2.85;;;;;;;17.96;64.12;100199.97;1823539;77;22542;-54
2021/05/21 06:09:15;;;;;;;2.60;2.10;;;;;;;18.00;64.10;100197.20;1804186;77;22190;-54
2021/05/21 06:11:51;;;;;;;2.60;2.27;;;;;;;17.98;64.04;100208.75;1816514;77;22164;-54
2021/05/21 06:14:37;;;;;;;3.20;2.58;;;;;;;17.96;64.08;100215.95;1748529;81;21150;-54
2021/05/21 06:17:10;;;;;;;3.15;2.58;;;;;;;18.10;63.82;100219.81;1803368;77;22154;-54
2021/05/21 06:19:43;;;;;;;3.17;2.55;;;;;;;18.13;63.57;100215.20;1818173;77;22167;-53
2021/05/21 06:22:16;;;;;;;3.33;2.45;;;;;;;18.12;63.53;100222.79;1819548;77;22190;-54
2021/05/21 06:24:51;;;;;;;5.67;2.77;;;;;;;18.14;63.54;100225.37;1817491;77;22138;-54
2021/05/21 06:27:44;;;;;;;4.28;2.80;;;;;;;18.16;63.62;100222.16;1814927;77;22229;-54
2021/05/21 06:30:19;;;;;;;3.37;2.35;;;;;;;18.20;63.69;100227.75;1820555;77;22527;-54
2021/05/21 06:33:05;;;;;;;4.17;2.62;;;;;;;18.21;63.49;100236.14;1772419;80;21146;-55
2021/05/21 06:35:38;;;;;;;2.90;2.33;;;;;;;17.21;66.67;100239.61;1818124;77;22149;-54
2021/05/21 06:38:12;;;;;;;2.90;2.33;;;;;;;17.13;66.92;100236.40;1815654;77;22159;-54
2021/05/21 06:40:51;;;;;;;2.92;2.58;;;;;;;17.10;67.13;100241.84;1821908;77;22223;-54
2021/05/21 06:43:29;;;;;;;5.47;2.85;;;;;;;17.12;67.42;100250.63;1807051;77;22159;-54
2021/05/21 06:46:15;;;;;;;3.22;2.33;;;;;;;17.12;67.64;100248.44;1763005;81;21584;-55
2021/05/21 06:48:48;;;;;;;3.42;2.80;;;;;;;17.18;67.89;100242.88;1810364;77;22186;-54
2021/05/21 06:51:22;;;;;;;3.62;2.60;;;;;;;17.20;67.99;100245.85;1833970;77;22136;-54
2021/05/21 06:53:56;;;;;;;3.22;2.75;;;;;;;17.26;68.17;100243.87;1801772;77;22174;-54
2021/05/21 06:56:29;;;;;;;4.58;3.42;;;;;;;16.70;70.06;100248.31;1820037;77;22159;-54
2021/05/21 06:59:15;;;;;;;4.58;2.98;;;;;;;16.57;70.78;100252.38;1728250;82;21624;-55
2021/05/21 07:01:48;;;;;;;4.05;2.95;;;;;;;16.60;70.92;100250.44;1831880;77;22138;-54
2021/05/21 07:04:21;;;;;;;3.17;2.30;;;;;;;16.60;71.00;100253.58;1806884;77;22614;-54
2021/05/21 07:07:00;;;;;;;3.15;2.45;;;;;;;16.60;71.01;100248.27;1821516;77;22145;-54
2021/05/21 07:09:33;;;;;;;2.83;2.22;;;;;;;17.28;68.99;100249.98;1826513;77;22167;-55
2021/05/21 07:12:08;;;;;;;3.17;2.77;;;;;;;17.43;68.42;100257.78;1818405;77;22186;-55
2021/05/21 07:14:41;;;;;;;3.02;2.42;;;;;;;17.48;68.23;100260.63;1816938;77;22135;-54
2021/05/21 07:17:27;;;;;;;4.67;2.30;;;;;;;17.47;68.16;100263.37;1768524;80;21151;-55
2021/05/21 07:20:00;;;;;;;2.87;2.35;;;;;;;17.58;68.00;100265.56;1834222;77;22158;-55
2021/05/21 07:22:34;;;;;;;3.98;2.20;;;;;;;17.59;67.77;100264.17;1813367;77;22209;-54
2021/05/21 07:25:20;;;;;;;2.95;2.33;;;;;;;17.57;67.64;100268.70;1761872;81;21091;-55
2021/05/21 07:27:53;;;;;;;2.85;2.15;;;;;;;17.16;68.48;100276.16;1837032;77;22193;-54
2021/05/21 07:30:26;;;;;;;2.75;1.92;;;;;;;16.85;69.64;100277.39;1834488;77;22152;-55
2021/05/21 07:33:14;;;;;;;2.50;2.02;;;;;;;16.74;69.94;100284.47;1763786;80;21158;-56
2021/05/21 07:35:47;;;;;;;3.58;2.37;;;;;;;16.75;70.22;100278.67;1813438;77;22186;-55
2021/05/21 07:38:20;;;;;;;2.25;2.00;;;;;;;17.22;68.72;100288.36;1809915;77;22633;-54
2021/05/21 07:40:54;;;;;;;3.87;2.17;;;;;;;17.46;67.78;100285.58;1826384;77;22180;-55
2021/05/21 07:43:39;;;;;;;4.25;2.58;;;;;;;17.46;67.63;100286.91;1770971;80;21446;-56
2021/05/21 07:46:16;;;;;;;4.22;2.90;;;;;;;17.53;67.56;100283.06;1819495;77;22216;-55
2021/05/21 07:48:51;;;;;;;2.80;2.30;;;;;;;17.56;67.49;100288.70;1811131;77;22194;-56
2021/05/21 07:51:24;;;;;;;4.10;2.60;;;;;;;17.60;67.49;100292.97;1832553;77;22135;-55
2021/05/21 07:53:57;;;;;;;2.72;2.02;;;;;;;17.64;67.51;100300.77;1826074;77;22205;-55
2021/05/21 07:56:30;;;;;;;5.40;2.50;;;;;;;17.66;67.42;100304.69;1824330;77;22578;-55
2021/05/21 07:59:17;;;;;;;2.80;2.40;;;;;;;17.63;67.33;100303.03;1747189;80;21722;-55
2021/05/21 08:01:50;;;;;;;4.97;2.50;;;;;;;17.73;67.43;100305.27;1819882;77;22175;-55
2021/05/21 08:04:23;;;;;;;3.67;2.30;;;;;;;17.76;67.31;100301.15;1818644;77;22609;-55
2021/05/21 08:06:56;;;;;;;3.35;2.00;;;;;;;17.79;67.22;100306.34;1827378;77;22159;-55
2021/05/21 08:09:30;;;;;;;3.67;1.92;;;;;;;17.75;66.87;100304.30;1834727;77;22646;-55
2021/05/21 08:12:06;;;;;;;3.12;1.90;;;;;;;17.76;66.93;100307.35;1791713;77;22154;-55
2021/05/21 08:14:39;;;;;;;3.85;2.75;;;;;;;17.79;66.76;100320.98;1818088;77;28033;-55
2021/05/21 08:17:12;;;;;;;3.35;2.10;;;;;;;17.78;66.82;100314.81;1831920;77;22175;-55
2021/05/21 08:19:45;;;;;;;3.35;2.10;;;;;;;17.82;66.48;100316.86;1814199;77;22186;-55
2021/05/21 08:22:19;;;;;;;3.85;1.98;;;;;;;17.81;66.18;100323.11;1842973;77;22175;-55
2021/05/21 08:24:52;;;;;;;3.85;1.85;;;;;;;17.80;66.27;100326.70;1802330;77;22185;-55
2021/05/21 08:27:38;;;;;;;2.45;1.70;;;;;;;17.77;66.12;100340.14;1712222;83;21142;-57
2021/05/21 08:30:13;;;;;;;3.00;1.67;;;;;;;17.80;65.99;100334.69;1817953;77;22154;-55
2021/05/21 08:32:48;;;;;;;2.08;1.35;;;;;;;17.78;65.94;100342.76;1824324;77;22178;-55
2021/05/21 08:35:21;;;;;;;2.80;1.87;;;;;;;17.80;66.03;100346.22;1834745;77;22183;-56
2021/05/21 08:37:54;;;;;;;2.58;1.70;;;;;;;17.75;66.18;100348.21;1806538;77;22182;-55
2021/05/21 08:40:35;;;;;;;2.30;2.02;;;;;;;17.75;65.95;100353.98;1847172;77;22578;-55
2021/05/21 08:43:15;;;;;;;2.50;1.60;;;;;;;17.72;65.82;100364.31;1783082;80;21182;-56
2021/05/21 08:45:48;;;;;;;3.90;1.67;;;;;;;17.79;65.98;100358.25;1853124;77;22174;-55
2021/05/21 08:48:21;;;;;;;3.42;1.70;;;;;;;17.81;66.14;100353.28;1830407;77;22617;-55
2021/05/21 08:50:55;;;;;;;3.70;1.98;;;;;;;17.81;65.95;100359.94;1834631;77;22658;-55
2021/05/21 08:53:28;;;;;;;4.47;1.80;;;;;;;17.84;65.71;100365.58;1827704;77;22182;-55
2021/05/21 08:56:01;;;;;;;2.98;1.75;;;;;;;17.88;65.70;100365.84;1816129;77;22574;-55
2021/05/21 08:58:37;;;;;;;2.77;1.90;;;;;;;17.90;65.66;100367.09;1830644;77;22170;-56
2021/05/21 09:01:30;;;;;;;1.90;1.60;;;;;;;17.91;65.64;100364.39;1842146;77;22664;-56
2021/05/21 09:04:05;;;;;;;6.12;1.82;;;;;;;18.00;65.78;100359.15;1806786;77;22198;-55
2021/05/21 09:06:51;;;;;;;3.47;2.02;;;;;;;17.41;67.45;100362.06;1761835;80;21570;-56
2021/05/21 09:09:24;;;;;;;3.00;1.82;;;;;;;17.32;68.02;100361.50;1819835;77;22209;-55
2021/05/21 09:11:57;;;;;;;6.25;2.62;;;;;;;18.07;66.29;100355.77;1831745;77;22139;-56
2021/05/21 09:14:30;;;;;;;3.05;1.90;;;;;;;18.00;66.72;100356.97;1829267;77;22139;-55
2021/05/21 09:17:03;;;;;;;3.50;1.65;;;;;;;17.58;68.36;100360.91;1852257;77;22167;-55
2021/05/21 09:19:50;;;;;;;4.28;1.90;;;;;;;17.62;68.61;100369.16;1767671;80;21301;-56
2021/05/21 09:22:23;;;;;;;3.92;2.00;;;;;;;17.82;68.48;100358.13;1843938;77;22170;-56
2021/05/21 09:24:56;;;;;;;3.27;2.33;;;;;;;18.67;66.58;100347.73;1817725;77;22161;-56
2021/05/21 09:27:43;;;;;;;4.25;2.30;;;;;;;18.88;66.99;100352.97;1769208;80;21146;-57
2021/05/21 09:30:18;;;;;;;4.15;1.90;;;;;;;19.17;66.01;100342.27;1821236;77;22167;-55
2021/05/21 09:33:04;;;;;;;3.35;2.10;;;;;;;19.35;65.33;100344.10;1836034;77;22172;-55
2021/05/21 09:35:55;;;;;;;2.60;2.10;;;;;;;19.45;65.00;100343.55;1761858;81;21166;-57
2021/05/21 09:38:48;;;;;;;5.12;2.12;;;;;;;19.69;64.70;100331.26;1832742;77;22165;-55
2021/05/21 09:41:27;;;;;;;2.47;1.80;;;;;;;19.88;64.59;100329.86;1823580;77;22151;-55
2021/05/21 09:44:00;;;;;;;2.17;1.45;;;;;;;20.02;62.82;100327.80;1807501;77;22159;-55
2021/05/21 09:46:49;;;;;;;2.40;1.40;;;;;;;20.05;62.77;100325.45;1761972;81;21557;-56
2021/05/21 09:49:34;;;;;;;3.27;1.77;;;;;;;20.18;62.60;100327.84;1804894;77;38353;-55
2021/05/21 09:52:10;;;;;;;2.37;1.67;;;;;;;20.16;62.81;100324.87;1835975;77;22123;-56
2021/05/21 09:54:56;;;;;;;1.60;1.25;;;;;;;19.75;64.39;100332.73;1761780;81;21106;-57
2021/05/21 09:57:34;;;;;;;1.95;1.55;;;;;;;19.84;63.45;100330.09;1846368;77;22169;-56
2021/05/21 10:00:12;;;;;;;3.20;1.27;;;;;;;20.09;63.46;100327.48;1829217;77;22116;-56
2021/05/21 10:02:45;;;;;;;1.62;1.10;;;;;;;20.04;61.88;100323.73;1819351;77;22186;-56
2021/05/21 10:05:19;;;;;;;1.27;1.02;;;;;;;20.38;61.34;100325.05;1834731;77;22615;-56
2021/05/21 10:07:52;;;;;;;2.08;1.00;;;;;;;20.95;58.84;100325.96;1823124;77;22170;-56
2021/05/21 10:10:26;;;;;;;1.62;0.95;;;;;;;21.13;57.35;100323.16;1834082;77;22140;-56
2021/05/21 10:13:12;;;;;;;1.35;0.85;;;;;;;21.23;56.63;100321.69;1728462;82;21142;-57
2021/05/21 10:15:46;;;;;;;2.42;1.00;;;;;;;21.31;56.91;100317.22;1850451;77;22155;-57
2021/05/21 10:18:19;;;;;;;1.05;0.70;;;;;;;21.37;56.15;100319.08;1795072;77;22619;-56
2021/05/21 10:21:05;;;;;;;2.30;1.00;;;;;;;21.81;54.34;100323.25;1752256;81;21609;-57
2021/05/21 10:23:55;;;;;;;2.45;0.98;;;;;;;21.95;54.29;100310.34;1816696;77;22578;-57
2021/05/21 10:26:34;;;;;;;1.35;1.07;;;;;;;22.18;55.13;100314.29;1821506;77;22143;-56
2021/05/21 10:29:20;;;;;;;1.87;1.15;;;;;;;22.31;54.14;100299.63;1804425;77;22661;-56
2021/05/21 10:31:55;;;;;;;2.92;1.00;;;;;;;22.52;53.24;100305.48;1819135;77;27887;-57
2021/05/21 10:34:29;;;;;;;3.42;1.00;;;;;;;22.65;52.39;100310.92;1837319;77;27962;-56
2021/05/21 10:40:13;;;;;;;1.22;0.80;;;;;;;23.06;52.05;100303.83;1822402;77;23534;-56
2021/05/21 10:42:48;;;;;;;1.55;1.17;;;;;;;23.33;50.49;100300.28;1801463;77;22220;-56
2021/05/21 10:45:27;;;;;;;1.95;1.17;;;;;;;23.48;50.63;100306.44;1827532;77;22567;-56
2021/05/21 10:48:04;;;;;;;1.75;0.80;;;;;;;23.66;49.02;100304.81;1783620;77;22653;-56
2021/05/21 10:50:49;;;;;;;2.27;0.70;;;;;;;23.86;49.66;100302.94;1762172;81;21157;-57
2021/05/21 10:53:22;;;;;;;1.15;0.80;;;;;;;24.11;47.71;100305.30;1816220;77;22194;-56
2021/05/21 10:55:55;;;;;;;1.37;0.78;;;;;;;24.28;48.38;100297.87;1834762;77;22175;-56
2021/05/21 10:58:32;;;;;;;1.55;0.78;;;;;;;24.61;47.73;100293.22;1813725;77;22214;-56
2021/05/21 11:01:15;;;;;;;1.27;0.80;;;;;;;24.95;47.05;100291.25;1831003;77;22164;-56
2021/05/21 11:04:05;;;;;;;1.77;0.88;;;;;;;25.09;45.74;100291.09;1763962;80;21180;-57
2021/05/21 11:06:45;;;;;;;2.72;0.93;;;;;;;25.20;45.01;100290.75;1834723;77;22167;-57
2021/05/21 11:09:30;;;;;;;5.55;1.05;;;;;;;25.31;44.94;100284.06;1799749;77;28105;-56
2021/05/21 11:12:16;;;;;;;0.80;0.70;;;;;;;25.36;45.46;100285.92;1781066;80;21138;-58
2021/05/21 11:14:50;;;;;;;8.35;1.10;;;;;;;25.75;45.44;100280.78;1834734;77;22179;-56
2021/05/21 11:17:26;;;;;;;1.57;0.72;;;;;;;25.96;45.20;100283.16;1821127;77;22182;-56
2021/05/21 11:20:15;;;;;;;2.87;0.70;;;;;;;26.07;43.92;100278.73;1732014;81;21159;-58
2021/05/21 11:22:48;;;;;;;3.27;0.90;;;;;;;26.12;43.67;100277.87;1824070;77;22179;-56
2021/05/21 11:25:21;;;;;;;1.50;0.70;;;;;;;26.13;44.33;100281.84;1834865;77;22179;-56
2021/05/21 11:28:07;;;;;;;1.22;0.88;;;;;;;26.30;43.48;100277.43;1710889;83;21134;-58
2021/05/21 11:30:40;;;;;;;1.07;0.70;;;;;;;26.54;43.83;100277.28;1834785;77;22175;-57
2021/05/21 11:33:13;;;;;;;1.22;0.82;;;;;;;26.74;43.53;100279.70;1818213;77;22170;-56
2021/05/21 11:35:46;;;;;;;1.25;0.40;;;;;;;27.00;42.65;100278.05;1853108;77;22175;-57
2021/05/21 11:38:31;;;;;;;1.70;0.55;;;;;;;27.16;40.15;100273.08;1773829;78;21151;-57
2021/05/21 11:41:06;;;;;;;2.30;0.53;;;;;;;27.39;38.34;100273.47;1834763;77;22164;-57
2021/05/21 11:43:43;;;;;;;2.15;0.55;;;;;;;27.34;39.27;100277.92;1812454;77;22607;-57
2021/05/21 11:46:29;;;;;;;;;;;;;;;27.44;39.49;100280.69;1764817;81;21130;-57
2021/05/21 11:49:08;;;;;;;3.02;0.85;;;;;;;27.35;39.12;100280.13;1806932;77;22190;-56
2021/05/21 11:51:41;;;;;;;0.68;0.40;;;;;;;27.09;39.61;100289.95;1834752;77;22148;-56
2021/05/21 11:54:28;;;;;;;1.00;0.40;;;;;;;27.68;39.34;100283.17;1762073;81;21143;-57
2021/05/21 11:57:01;;;;;;;0.70;0.45;;;;;;;27.57;40.29;100275.99;1816581;77;22548;-56
2021/05/21 11:59:34;;;;;;;1.85;0.50;;;;;;;28.37;38.35;100270.48;1823540;77;22143;-56
2021/05/21 12:02:08;;;;;;;1.10;0.33;;;;;;;28.58;37.55;100273.11;1833013;77;22179;-56
2021/05/21 12:04:43;;;;;;;1.32;0.60;;;;;;;28.75;37.49;100275.18;1839222;77;22167;-56
2021/05/21 12:07:25;;;;;;;1.95;0.62;;;;;;;28.76;36.59;100278.73;1815219;77;22183;-57
2021/05/21 12:10:02;;;;;;;1.20;0.50;;;;;;;28.73;37.61;100273.56;1820040;77;22140;-57
2021/05/21 12:12:36;;;;;;;0.72;0.42;;;;;;;28.67;36.09;100279.56;1845146;77;22181;-57
2021/05/21 12:15:23;;;;;;;1.50;0.60;;;;;;;28.42;34.90;100275.86;1773889;80;21166;-58